Santa Monica Basin 33NM WSW of Santa Monica, CA (46025)

Conditions for Wednesday

Daily
Weekly
Monthly
Marine Data Graph
Ad Blocker Enabled

Marine & Boating Location Search

Enter a coastal zip code for marine weather.

General Information

Location: 33.749 North -119.053 West
Buoy Type: 3-meter discus buoy
Buoy Hull: 3D84
Payload: AMPS payload
Owned by: NDBC
Windspeed: Measured by obtained from anemometer
Sea Surface: Measured by Intake
Note: "Potential Explosion Hazard Exists for this Buoy"

Weather and Wave Data

Time Temp Humidity Wind Dominant Wave Wind Wave Wave Swell Pressure
  Air
(°F)
Water
(°F)
  Dir Speed
(kts)
Speed
(mph)
Period
(sec)
Height
(ft)
Range
(ft)
Period
(sec)
Height
(ft)
Range
(ft)
Period
(sec)
Height
(ft)
Range
(ft)
Atmo.
(in)
Tend.
(in)
20:50 58 62 88 North 3.9 4.5 17 3.28 exactly 3.3 - - - 17 3.28 2.46 - 4.10 29.88 +0.02
21:50 58 61 87 North 5.8 6.7 15 3.61 exactly 3.6 - - - 15 3.28 2.46 - 4.10 29.90 +0.04
22:50 58 61 88 - 0.0 0.0 17 3.61 exactly 3.6 - - - 17 3.28 2.46 - 4.10 29.90 +0.03
23:50 58 60 90 NW 1.9 2.2 17 2.95 exactly 3.0 - - - 17 3.28 2.46 - 4.10 29.91 +0.03
00:50 59 60 82 ESE 1.9 2.2 17 2.95 exactly 3.0 3 1.64 0.82 - 2.46 17 3.28 2.46 - 4.10 29.91 +0.01
01:50 58 60 86 East 7.8 8.9 17 3.28 exactly 3.3 3 1.64 0.82 - 2.46 17 3.28 2.46 - 4.10 29.92 +0.02
02:50 59 60 76 East 7.8 8.9 17 2.95 exactly 3.0 - - - 17 3.28 2.46 - 4.10 29.92 +0.01
03:50 59 61 79 ESE 7.8 8.9 17 2.95 exactly 3.0 3 1.64 0.82 - 2.46 17 3.28 2.46 - 4.10 29.92 +0.01
04:50 59 61 77 East 7.8 8.9 17 2.95 exactly 3.0 3 1.64 0.82 - 2.46 17 3.28 2.46 - 4.10 29.93 -
05:50 58 61 86 SSE 3.9 4.5 17 3.61 exactly 3.6 - - - 17 3.28 2.46 - 4.10 29.94 +0.02
06:50 59 61 80 ESE 3.9 4.5 17 3.28 exactly 3.3 - - - 17 3.28 2.46 - 4.10 29.97 +0.05
07:50 60 61 80 SE 1.9 2.2 16 2.95 exactly 3.0 - - - 16 3.28 2.46 - 4.10 29.99 +0.07
08:50 60 62 78 ESE 1.9 2.2 16 3.28 exactly 3.3 - - - 16 3.28 2.46 - 4.10 30.01 +0.07
09:50 60 62 78 ESE 1.9 2.2 17 3.28 exactly 3.3 - - - 17 3.28 2.46 - 4.10 30.02 +0.05
10:50 60 62 77 SE 1.9 2.2 16 3.28 exactly 3.3 - - - 16 3.28 2.46 - 4.10 30.03 +0.04
11:50 60 63 77 SSE 1.9 2.2 17 2.95 exactly 3.0 - - - 17 3.28 2.46 - 4.10 30.04 +0.03
12:50 62 64 73 SSW 1.9 2.2 17 3.61 exactly 3.6 4 1.64 0.82 - 2.46 17 3.28 2.46 - 4.10 30.04 +0.01
13:50 62 65 72 West 1.9 2.2 17 3.28 exactly 3.3 - - - 17 3.28 2.46 - 4.10 30.03 -
14:50 62 65 71 West 3.9 4.5 17 3.61 exactly 3.6 - - - 17 3.28 2.46 - 4.10 30.02 -0.01
15:50 61 63 75 West 7.8 8.9 17 3.61 exactly 3.6 - - - 17 3.28 2.46 - 4.10 30.02 -0.02
16:50 61 62 75 WNW 9.7 11.2 17 3.61 exactly 3.6 - - - 17 3.28 2.46 - 4.10 30.01 -0.03
17:50 62 62 73 WNW 7.8 8.9 17 2.62 exactly 2.6 - - - 17 3.28 2.46 - 4.10 30.00 -0.02
18:50 61 62 80 West 7.8 8.9 17 3.61 exactly 3.6 - - - 17 3.28 2.46 - 4.10 30.00 -0.01
19:50 61 62 82 West 5.8 6.7 16 3.28 exactly 3.3 - - - 16 3.28 2.46 - 4.10 30.02 +0.01
20:50 60 61 85 West 7.8 8.9 17 3.28 exactly 3.3 - - - 17 3.28 2.46 - 4.10 30.05 +0.05
21:50 60 61 87 West 5.8 6.7 16 2.95 exactly 3.0 - - - 16 3.28 2.46 - 4.10 30.08 +0.08
22:50 60 61 81 West 3.9 4.5 16 3.61 exactly 3.6 - - - 16 3.28 2.46 - 4.10 30.10 +0.08
23:50 60 61 81 West 1.9 2.2 16 3.61 exactly 3.6 4 1.64 0.82 - 2.46 16 3.28 2.46 - 4.10 30.11 +0.06
00:50 60 61 80 - 0.0 0.0 16 3.61 exactly 3.6 4 1.64 0.82 - 2.46 16 3.28 2.46 - 4.10 30.12 +0.04
01:50 59 61 80 - 0.0 0.0 16 2.95 exactly 3.0 3 1.64 0.82 - 2.46 16 3.28 2.46 - 4.10 30.11 -
02:50 59 62 79 - 0.0 0.0 16 3.61 exactly 3.6 3 1.64 0.82 - 2.46 16 3.28 2.46 - 4.10 30.10 -0.01

Detailed Wave Spectra

Time Water Depth Wave Height Spectral Peak Period Average Wave Period Sampling Interval Wave Record
20:00 2969 ft 3.71 ft 17.4 sec 8.3 sec 0.6 sec 2400 sec
21:00 2969 ft 3.38 ft 17.4 sec 8.0 sec 0.6 sec 2400 sec
22:00 2969 ft 3.58 ft 14.8 sec 7.8 sec 0.6 sec 2400 sec
23:00 2969 ft 3.64 ft 17.4 sec 8.1 sec 0.6 sec 2400 sec
01:00 2969 ft 3.08 ft 17.4 sec 7.2 sec 0.6 sec 2400 sec
02:00 2969 ft 3.35 ft 17.4 sec 7.8 sec 0.6 sec 2400 sec
03:00 2969 ft 2.99 ft 17.4 sec 7.3 sec 0.6 sec 2400 sec
04:00 2969 ft 3.02 ft 17.4 sec 7.1 sec 0.6 sec 2400 sec
05:00 2969 ft 2.89 ft 17.4 sec 6.8 sec 0.6 sec 2400 sec
06:00 2969 ft 3.44 ft 17.4 sec 8.1 sec 0.6 sec 2400 sec
07:00 2969 ft 3.25 ft 17.4 sec 8.0 sec 0.6 sec 2400 sec
08:00 2969 ft 2.99 ft 16.0 sec 7.4 sec 0.6 sec 2400 sec
09:00 2969 ft 3.18 ft 16.0 sec 7.6 sec 0.6 sec 2400 sec
10:00 2969 ft 3.35 ft 17.4 sec 8.0 sec 0.6 sec 2400 sec
11:00 2969 ft 3.12 ft 16.0 sec 7.5 sec 0.6 sec 2400 sec
12:00 2969 ft 2.99 ft 17.4 sec 7.5 sec 0.6 sec 2400 sec
13:00 2969 ft 3.44 ft 17.4 sec 7.6 sec 0.6 sec 2400 sec
14:00 2969 ft 3.22 ft 17.4 sec 7.4 sec 0.6 sec 2400 sec
15:00 2969 ft 3.54 ft 17.4 sec 8.3 sec 0.6 sec 2400 sec
16:00 2969 ft 3.74 ft 17.4 sec 8.3 sec 0.6 sec 2400 sec
17:00 2969 ft 3.67 ft 17.4 sec 9.0 sec 0.6 sec 2400 sec
18:00 2969 ft 2.66 ft 17.4 sec 7.5 sec 0.6 sec 2400 sec
19:00 2969 ft 3.48 ft 17.4 sec 9.3 sec 0.6 sec 2400 sec
20:00 2969 ft 3.31 ft 16.0 sec 8.5 sec 0.6 sec 2400 sec
21:00 2969 ft 3.35 ft 17.4 sec 8.4 sec 0.6 sec 2400 sec
22:00 2969 ft 3.12 ft 16.0 sec 8.1 sec 0.6 sec 2400 sec
23:00 2969 ft 3.51 ft 16.0 sec 8.0 sec 0.6 sec 2400 sec
00:00 2969 ft 3.58 ft 16.0 sec 7.7 sec 0.6 sec 2400 sec
01:00 2969 ft 3.61 ft 16.0 sec 7.8 sec 0.6 sec 2400 sec
02:00 2969 ft 3.02 ft 16.0 sec 6.6 sec 0.6 sec 2400 sec
03:00 2969 ft 3.54 ft 16.0 sec 7.8 sec 0.6 sec 2400 sec